createdAt,value
2022-12-01T03:36:01.488Z,102617.22
2022-12-01T03:38:54.696Z,102613.84
2022-12-01T03:41:48.895Z,102622.19
2022-12-01T03:44:43.533Z,102618.94
2022-12-01T03:47:35.718Z,102627.28
2022-12-01T03:50:31.114Z,102619.78
2022-12-01T03:53:22.971Z,102632.47
2022-12-01T03:56:12.306Z,102615.66
2022-12-01T03:59:02.954Z,102622.38
2022-12-01T04:01:51.471Z,102608.91
2022-12-01T04:04:39.130Z,102616.59
2022-12-01T04:07:26.794Z,102619.13
2022-12-01T04:10:14.820Z,102630.09
2022-12-01T04:13:02.475Z,102627.66
2022-12-01T04:15:51.815Z,102623.56
2022-12-01T04:18:39.455Z,102628.72
2022-12-01T04:21:27.123Z,102634.66
2022-12-01T04:24:14.729Z,102623.78
2022-12-01T04:27:02.384Z,102633.81
2022-12-01T04:29:50.125Z,102630.44
2022-12-01T04:32:39.908Z,102627.00
2022-12-01T04:35:27.542Z,102627.75
2022-12-01T04:38:15.241Z,102629.47
2022-12-01T04:41:09.403Z,102617.72
2022-12-01T04:43:57.022Z,102628.59
2022-12-01T04:46:45.088Z,102638.72
2022-12-01T04:49:33.432Z,102633.81
2022-12-01T04:52:21.092Z,102633.81
2022-12-01T04:55:09.169Z,102630.47
2022-12-01T04:57:58.077Z,102627.16
2022-12-01T05:00:45.770Z,102633.91
2022-12-01T05:03:37.476Z,102627.22
2022-12-01T05:06:27.755Z,102626.44
2022-12-01T05:09:17.708Z,102636.50
2022-12-01T05:12:05.736Z,102630.63
2022-12-01T05:14:53.381Z,102636.63
2022-12-01T05:17:41.147Z,102629.97
2022-12-01T05:20:47.416Z,102633.44
2022-12-01T05:23:36.617Z,102637.69
2022-12-01T05:26:24.215Z,102640.34
2022-12-01T05:29:13.120Z,102642.13
2022-12-01T05:32:01.495Z,102645.56
2022-12-01T05:34:49.141Z,102639.66
2022-12-01T05:37:36.750Z,102643.97
2022-12-01T05:40:24.333Z,102644.94
2022-12-01T05:43:11.932Z,102642.56
2022-12-01T05:45:59.717Z,102647.69
2022-12-01T05:48:47.411Z,102654.44
2022-12-01T05:51:35.081Z,102651.88
2022-12-01T05:54:22.706Z,102653.69
2022-12-01T05:57:10.289Z,102657.16
2022-12-01T05:59:57.911Z,102664.81
2022-12-01T06:02:45.909Z,102661.59
2022-12-01T06:05:33.580Z,102650.75
2022-12-01T06:08:21.201Z,102665.19
2022-12-01T06:11:09.571Z,102668.66
2022-12-01T06:13:57.143Z,102670.44
2022-12-01T06:16:44.799Z,102668.88
2022-12-01T06:19:32.408Z,102669.03
2022-12-01T06:22:20.038Z,102674.25
2022-12-01T06:25:08.558Z,102674.34
2022-12-01T06:27:58.389Z,102668.56
2022-12-01T06:30:46.014Z,102667.84
2022-12-01T06:33:33.714Z,102680.59
2022-12-01T06:36:21.353Z,102677.44
2022-12-01T06:39:10.157Z,102671.75
2022-12-01T06:41:57.749Z,102673.50
2022-12-01T06:44:46.255Z,102682.00
2022-12-01T06:47:33.967Z,102677.06
2022-12-01T06:50:21.853Z,102668.72
2022-12-01T06:53:10.093Z,102675.47
2022-12-01T06:56:01.920Z,102680.53
2022-12-01T06:58:50.640Z,102668.72
2022-12-01T07:01:39.062Z,102676.31
2022-12-01T07:04:26.818Z,102671.34
2022-12-01T07:07:14.516Z,102668.03
2022-12-01T07:10:02.113Z,102666.38
2022-12-01T07:12:51.612Z,102664.66
2022-12-01T07:15:39.236Z,102673.88
2022-12-01T07:18:26.935Z,102653.72
2022-12-01T07:21:15.851Z,102653.81
2022-12-01T07:24:03.550Z,102659.78
2022-12-01T07:26:51.148Z,102655.63
2022-12-01T07:29:38.739Z,102668.31
2022-12-01T07:32:26.363Z,102672.53
2022-12-01T07:35:14.133Z,102670.84
2022-12-01T07:38:01.784Z,102672.53
2022-12-01T07:40:49.415Z,102667.56
2022-12-01T07:43:37.502Z,102671.03
2022-12-01T07:46:27.069Z,102668.63
2022-12-01T07:49:15.672Z,102668.66
2022-12-01T07:52:03.396Z,102672.09
2022-12-01T07:54:50.957Z,102669.59
2022-12-01T07:57:38.552Z,102668.75
2022-12-01T08:00:26.271Z,102663.69
2022-12-01T08:03:14.257Z,102673.00
2022-12-01T08:06:03.132Z,102674.72
2022-12-01T08:08:51.379Z,102674.72
2022-12-01T08:11:39.044Z,102681.34
2022-12-01T08:14:26.710Z,102675.50
2022-12-01T08:17:14.343Z,102672.22
2022-12-01T08:20:01.947Z,102665.56
2022-12-01T08:22:50.819Z,102663.88
2022-12-01T08:25:38.412Z,102671.41
2022-12-01T08:28:25.977Z,102666.38
2022-12-01T08:31:23.521Z,102663.94
2022-12-01T08:34:11.377Z,102665.59
2022-12-01T08:36:59.191Z,102662.19
2022-12-01T08:39:47.040Z,102661.34
2022-12-01T08:42:34.812Z,102657.13
2022-12-01T08:45:23.201Z,102657.06
2022-12-01T08:48:10.862Z,102659.66
2022-12-01T08:51:18.447Z,102664.78
2022-12-01T08:54:06.231Z,102662.28
2022-12-01T08:56:53.840Z,102663.31
2022-12-01T08:59:41.504Z,102665.13
2022-12-01T09:02:29.333Z,102657.59
2022-12-01T09:05:17.130Z,102650.03
2022-12-01T09:08:23.261Z,102643.31
2022-12-01T09:11:14.390Z,102650.94
2022-12-01T09:14:02.054Z,102632.47
2022-12-01T09:16:50.794Z,102642.59
2022-12-01T09:19:38.403Z,102635.00
2022-12-01T09:22:26.006Z,102642.66
2022-12-01T09:25:17.895Z,102641.88
2022-12-01T09:28:05.492Z,102643.63
2022-12-01T09:30:53.053Z,102631.88
2022-12-01T09:33:41.060Z,102625.19
2022-12-01T09:36:30.325Z,102628.66
2022-12-01T09:39:20.306Z,102638.84
2022-12-01T09:42:18.621Z,102632.16
2022-12-01T09:45:07.299Z,102621.22
2022-12-01T09:47:59.108Z,102624.63
2022-12-01T09:50:46.733Z,102625.47
2022-12-01T09:53:34.489Z,102626.34
2022-12-01T09:56:32.307Z,102630.53
2022-12-01T09:59:25.547Z,102630.50
2022-12-01T10:02:29.560Z,102640.63
2022-12-01T10:05:24.765Z,102635.53
2022-12-01T10:08:16.652Z,102642.31
2022-12-01T10:11:24.560Z,102641.50
2022-12-01T10:14:20.537Z,102640.69
2022-12-01T10:17:49.537Z,102643.34
2022-12-01T10:20:49.047Z,102630.72
2022-12-01T10:23:51.904Z,102634.91
2022-12-01T10:26:57.562Z,102623.94
2022-12-01T10:30:01.040Z,102623.13
2022-12-01T10:32:53.929Z,102623.97
2022-12-01T10:35:41.832Z,102618.06
2022-12-01T10:38:59.600Z,102620.63
2022-12-01T10:41:49.061Z,102620.59
2022-12-01T10:44:36.881Z,102615.53
2022-12-01T10:47:26.493Z,102613.00
2022-12-01T10:50:28.126Z,102610.44
2022-12-01T10:53:30.984Z,102617.22
2022-12-01T10:56:21.633Z,102607.94
2022-12-01T10:59:32.504Z,102617.19
2022-12-01T11:02:26.744Z,102622.25
2022-12-01T11:05:28.454Z,102615.47
2022-12-01T11:08:24.635Z,102618.84
2022-12-01T11:11:30.430Z,102620.50
2022-12-01T11:14:24.235Z,102615.44
2022-12-01T11:17:27.000Z,102615.44
2022-12-01T11:20:40.789Z,102620.53
2022-12-01T11:23:29.820Z,102618.84
2022-12-01T11:26:31.145Z,102603.69
2022-12-01T11:29:29.543Z,102601.16
2022-12-01T11:32:25.181Z,102599.44
2022-12-01T11:35:12.727Z,102602.81
2022-12-01T11:41:26.921Z,102607.88
2022-12-01T11:47:30.105Z,102613.75
2022-12-01T11:50:26.693Z,102616.28
2022-12-01T11:53:27.843Z,102612.03
2022-12-01T11:56:30.261Z,102619.66
2022-12-01T11:59:25.947Z,102612.88
2022-12-01T12:02:31.882Z,102615.38
2022-12-01T12:05:39.748Z,102616.22
2022-12-01T12:08:30.001Z,102616.19
2022-12-01T12:11:26.452Z,102604.34
2022-12-01T12:14:20.214Z,102607.72
2022-12-01T12:17:38.200Z,102601.78
2022-12-01T12:20:44.330Z,102600.09
2022-12-01T12:23:53.335Z,102614.41
2022-12-01T12:27:00.316Z,102622.78
2022-12-01T12:30:03.041Z,102624.41
2022-12-01T12:33:10.783Z,102613.41
2022-12-01T12:36:04.125Z,102621.78
2022-12-01T12:39:17.158Z,102620.88
2022-12-01T12:42:18.094Z,102610.66
2022-12-01T12:45:08.967Z,102624.94
2022-12-01T12:48:25.957Z,102619.78
2022-12-01T12:51:22.851Z,102622.22
2022-12-01T12:54:38.496Z,102630.59
2022-12-01T12:57:39.173Z,102615.38
2022-12-01T13:00:29.261Z,102613.66
2022-12-01T13:03:21.769Z,102601.03
2022-12-01T13:06:14.822Z,102612.84
2022-12-01T13:09:11.346Z,102611.16
2022-12-01T13:12:06.516Z,102614.53
2022-12-01T13:15:21.322Z,102618.78
2022-12-01T13:18:26.789Z,102616.25
2022-12-01T13:21:20.423Z,102619.63
2022-12-01T13:24:13.111Z,102623.81
2022-12-01T13:27:11.303Z,102623.81
2022-12-01T13:29:59.890Z,102623.75
2022-12-01T13:32:48.808Z,102612.00
2022-12-01T13:35:38.802Z,102619.56
2022-12-01T13:38:30.467Z,102616.25
2022-12-01T13:41:18.053Z,102614.53
2022-12-01T13:44:23.328Z,102610.34
2022-12-01T13:47:10.951Z,102619.63
2022-12-01T13:50:37.210Z,102610.41
2022-12-01T13:53:31.103Z,102608.72
2022-12-01T13:56:18.805Z,102608.69
2022-12-01T14:00:01.507Z,102606.16
2022-12-01T14:03:15.023Z,102610.34
2022-12-01T14:06:09.747Z,102606.09
2022-12-01T14:09:13.775Z,102604.41
2022-12-01T14:12:14.863Z,102603.50
2022-12-01T14:15:27.639Z,102599.28
2022-12-01T14:18:18.283Z,102603.47
2022-12-01T14:21:10.119Z,102599.28
2022-12-01T14:24:05.018Z,102594.16
2022-12-01T14:26:53.659Z,102584.81
2022-12-01T14:29:43.293Z,102593.25
2022-12-01T14:32:31.275Z,102597.47
2022-12-01T14:35:19.120Z,102597.50
2022-12-01T14:38:11.903Z,102584.06
2022-12-01T14:41:00.379Z,102590.84
2022-12-01T14:44:08.383Z,102588.28
2022-12-01T14:47:11.852Z,102586.59
2022-12-01T14:50:25.016Z,102586.59
2022-12-01T14:53:29.992Z,102582.28
2022-12-01T14:59:39.550Z,102591.56
2022-12-01T15:00:17.746Z,102581.41
2022-12-01T15:03:59.374Z,102575.44
2022-12-01T15:07:01.021Z,102577.94
2022-12-01T15:10:11.176Z,102595.66
2022-12-01T15:13:14.815Z,102589.75
2022-12-01T15:16:05.981Z,102586.34
2022-12-01T15:18:56.989Z,102588.03
2022-12-01T15:21:45.731Z,102589.69
2022-12-01T15:24:41.790Z,102588.84
2022-12-01T15:28:21.341Z,102580.41
2022-12-01T15:31:20.014Z,102593.03
2022-12-01T15:34:18.478Z,102582.91
2022-12-01T15:37:11.197Z,102582.97
2022-12-01T15:40:59.704Z,102596.47
2022-12-01T15:43:40.054Z,102588.97
2022-12-01T15:46:49.054Z,102582.22
2022-12-01T15:49:50.053Z,102573.78
2022-12-01T15:52:43.101Z,102585.66
2022-12-01T15:55:35.631Z,102573.88
2022-12-01T15:58:26.060Z,102579.81
2022-12-01T16:01:32.773Z,102570.56
2022-12-01T16:04:24.363Z,102580.66
2022-12-01T16:08:04.568Z,102578.94
2022-12-01T16:11:17.295Z,102573.03
2022-12-01T16:14:08.267Z,102583.88
2022-12-01T16:16:56.222Z,102582.97
2022-12-01T16:19:45.622Z,102573.66
2022-12-01T16:22:34.442Z,102578.66
2022-12-01T16:25:36.463Z,102573.59
2022-12-01T16:28:31.347Z,102570.22
2022-12-01T16:31:22.799Z,102571.84
2022-12-01T16:34:44.177Z,102579.38
2022-12-01T16:37:26.267Z,102582.66
2022-12-01T16:40:15.554Z,102571.69
2022-12-01T16:43:03.557Z,102586.00
2022-12-01T16:45:58.993Z,102579.25
2022-12-01T16:48:46.713Z,102577.59
2022-12-01T16:51:54.891Z,102575.13
2022-12-01T16:54:44.038Z,102571.78
2022-12-01T16:57:31.683Z,102570.13
2022-12-01T17:00:19.779Z,102571.81
2022-12-01T17:03:08.120Z,102571.00
2022-12-01T17:05:56.030Z,102571.03
2022-12-01T17:08:44.000Z,102557.56
2022-12-01T17:11:32.644Z,102570.22
2022-12-01T17:14:20.364Z,102557.59
2022-12-01T17:17:08.022Z,102560.09
2022-12-01T17:19:55.806Z,102557.59
2022-12-01T17:22:43.876Z,102565.16
2022-12-01T17:25:32.256Z,102565.97
2022-12-01T17:28:20.333Z,102561.75
2022-12-01T17:31:08.757Z,102567.66
2022-12-01T17:33:56.494Z,102562.56
2022-12-01T17:36:44.397Z,102564.22
2022-12-01T17:39:32.118Z,102565.88
2022-12-01T17:42:20.044Z,102560.03
2022-12-01T17:45:08.454Z,102559.94
2022-12-01T17:47:56.022Z,102564.91
2022-12-01T17:50:45.012Z,102559.78
2022-12-01T17:53:33.225Z,102563.06
2022-12-01T17:56:21.080Z,102557.09
2022-12-01T17:59:09.664Z,102557.88
2022-12-01T18:01:57.864Z,102563.69
2022-12-01T18:04:46.466Z,102565.25
2022-12-01T18:07:34.365Z,102560.28
2022-12-01T18:10:22.317Z,102561.13
2022-12-01T18:13:10.193Z,102566.19
2022-12-01T18:19:02.699Z,102567.75
2022-12-01T18:21:51.250Z,102570.28
2022-12-01T18:24:39.264Z,102558.47
2022-12-01T18:28:02.572Z,102543.25
2022-12-01T18:30:59.677Z,102569.41
2022-12-01T18:34:27.603Z,102571.91
2022-12-01T18:37:29.554Z,102567.66
2022-12-01T18:40:31.588Z,102564.28
2022-12-01T18:47:00.820Z,102562.53
2022-12-01T18:50:45.970Z,102563.38
2022-12-01T19:09:54.612Z,102590.69
2022-12-01T19:13:00.846Z,102590.66
2022-12-01T19:15:57.026Z,102589.81
2022-12-01T19:18:54.002Z,102586.41
2022-12-01T19:21:54.611Z,102593.84
2022-12-01T19:25:12.465Z,102589.56
2022-12-01T19:33:58.036Z,102580.69
2022-12-01T19:42:01.088Z,102577.06
2022-12-01T19:45:37.577Z,102580.41
2022-12-01T19:48:31.239Z,102571.09
2022-12-01T19:51:28.313Z,102579.44
2022-12-01T19:54:22.162Z,102575.22
2022-12-01T19:57:19.622Z,102581.13
2022-12-01T20:00:29.647Z,102586.19
2022-12-01T20:03:22.757Z,102583.53
2022-12-01T20:06:36.647Z,102578.41
2022-12-01T20:09:37.731Z,102578.34
2022-12-01T20:13:00.886Z,102586.09
2022-12-01T20:32:43.279Z,102596.09
2022-12-01T20:36:20.644Z,102601.13
2022-12-01T20:39:21.161Z,102609.59
2022-12-01T20:42:59.143Z,102618.03
2022-12-01T20:46:01.562Z,102613.75
2022-12-01T20:52:20.376Z,102604.25
2022-12-01T20:55:38.331Z,102596.56
2022-12-01T20:59:02.004Z,102615.06
2022-12-01T21:02:52.652Z,102606.63
2022-12-01T21:15:39.148Z,102607.50
2022-12-01T21:18:47.025Z,102607.56
2022-12-01T21:21:41.985Z,102598.38
2022-12-01T21:24:34.989Z,102586.63
2022-12-01T21:27:25.702Z,102578.41
2022-12-01T21:30:22.189Z,102589.47
2022-12-01T21:33:27.482Z,102589.50
2022-12-01T21:36:23.749Z,102573.47
2022-12-01T21:39:15.195Z,102581.94
2022-12-01T21:42:15.382Z,102582.75
2022-12-01T21:45:16.200Z,102581.84
2022-12-01T21:48:16.231Z,102584.28
2022-12-01T21:51:31.188Z,102581.66
2022-12-01T21:54:23.121Z,102580.78
2022-12-01T21:57:37.379Z,102577.44
2022-12-01T22:00:34.906Z,102574.72
2022-12-01T22:03:27.751Z,102578.13
2022-12-01T22:06:30.048Z,102584.84
2022-12-01T22:09:31.874Z,102586.41
2022-12-01T22:12:28.272Z,102592.25
2022-12-01T22:15:40.664Z,102595.56
2022-12-01T22:18:39.531Z,102594.69
2022-12-01T22:21:33.706Z,102597.22
2022-12-01T22:24:33.371Z,102594.66
2022-12-01T22:27:40.317Z,102590.50
2022-12-01T22:30:28.398Z,102578.72
2022-12-01T22:33:22.945Z,102576.22
2022-12-01T22:36:30.435Z,102586.41
2022-12-01T22:39:34.177Z,102572.22
2022-12-01T22:42:35.350Z,102586.53
2022-12-01T22:45:27.039Z,102569.66
2022-12-01T22:48:35.231Z,102576.34
2022-12-01T22:51:42.894Z,102583.88
2022-12-01T22:55:02.637Z,102572.84
2022-12-01T22:57:53.105Z,102577.03
2022-12-01T23:00:41.827Z,102578.72
2022-12-01T23:03:29.806Z,102577.03
2022-12-01T23:06:55.031Z,102580.38
2022-12-01T23:09:44.775Z,102577.81
2022-12-01T23:12:34.452Z,102577.81
2022-12-01T23:15:33.394Z,102577.81
2022-12-01T23:18:24.295Z,102575.22
2022-12-01T23:21:12.504Z,102578.69
2022-12-01T23:24:03.074Z,102567.72
2022-12-01T23:26:50.987Z,102582.13
2022-12-01T23:29:39.808Z,102586.41
2022-12-01T23:32:27.614Z,102582.19
2022-12-01T23:35:18.026Z,102573.88
2022-12-01T23:38:08.555Z,102577.22
2022-12-01T23:41:00.975Z,102571.31
2022-12-01T23:43:49.183Z,102581.50
2022-12-01T23:46:37.049Z,102584.03
2022-12-01T23:49:32.052Z,102589.94
2022-12-01T23:52:21.332Z,102574.00
2022-12-01T23:55:20.425Z,102581.69
2022-12-01T23:58:13.823Z,102577.63
